Time;durP1;ratioP1;P1;durP2;ratioP2;P2;SDS_P1;SDS_P2;PMS_P1;PMS_P2;Temp;Humidity;BMP_temperature;BMP_pressure;BME280_temperature;BME280_humidity;BME280_pressure;Samples;Min_cycle;Max_cycle;Signal;HPM_P1;HPM_P2
2023/05/16 00:01:22;;;;;;;15.40;8.70;;;;;;;14.24;88.65;101088.20;112221;1232;73186;-91
2023/05/16 00:03:49;;;;;;;16.00;10.30;;;;;;;14.22;89.17;101085.38;112229;1233;61391;-93
2023/05/16 00:06:26;;;;;;;19.70;11.40;;;;;;;14.18;89.47;101079.46;111931;1233;60267;-92
2023/05/16 00:08:53;;;;;;;16.90;10.40;;;;;;;14.17;89.48;101078.33;109752;1234;74769;-93
2023/05/16 00:11:20;;;;;;;16.40;10.80;;;;;;;14.16;89.82;101078.55;111480;1233;63802;-93
2023/05/16 00:13:47;;;;;;;15.80;11.00;;;;;;;14.15;89.90;101079.34;112385;1233;72750;-93
2023/05/16 00:16:15;;;;;;;18.30;11.80;;;;;;;14.14;89.89;101080.48;111718;1234;60227;-92
2023/05/16 00:18:45;;;;;;;16.70;11.30;;;;;;;14.10;89.93;101077.54;112425;1233;60065;-93
2023/05/16 00:21:12;;;;;;;22.70;11.20;;;;;;;14.07;90.30;101079.30;112055;1234;72724;-92
2023/05/16 00:23:54;;;;;;;15.80;11.10;;;;;;;14.04;90.33;101080.60;111525;1232;63743;-92
2023/05/16 00:26:25;;;;;;;17.60;9.60;;;;;;;13.98;90.44;101084.15;109801;1240;72481;-94
2023/05/16 00:28:52;;;;;;;19.10;10.00;;;;;;;13.91;90.63;101085.02;109385;1237;62867;-92
2023/05/16 00:31:21;;;;;;;16.20;10.90;;;;;;;13.83;91.20;101086.53;109448;1239;60453;-92
2023/05/16 00:33:50;;;;;;;21.50;11.10;;;;;;;13.78;91.88;101090.58;109376;1238;72747;-91
2023/05/16 00:36:18;;;;;;;19.10;10.60;;;;;;;13.75;92.53;101085.20;110011;1236;64186;-89
2023/05/16 00:38:48;;;;;;;26.20;13.00;;;;;;;13.71;93.12;101086.85;110416;1237;73550;-89
2023/05/16 00:41:17;;;;;;;16.30;11.60;;;;;;;13.67;93.52;101087.23;109503;1242;61574;-89
2023/05/16 00:43:44;;;;;;;23.20;12.20;;;;;;;13.67;93.65;101090.09;108882;1242;62023;-91
2023/05/16 00:46:11;;;;;;;19.60;12.20;;;;;;;13.66;93.94;101086.98;108952;1242;75021;-92
2023/05/16 00:48:38;;;;;;;21.60;11.60;;;;;;;13.64;94.20;101087.45;109253;1237;63471;-91
2023/05/16 00:51:08;;;;;;;20.00;12.50;;;;;;;13.61;94.41;101089.23;108889;1238;72941;-91
2023/05/16 00:53:35;;;;;;;23.20;11.90;;;;;;;13.59;94.85;101087.92;108855;1241;61537;-93
2023/05/16 00:56:05;;;;;;;15.80;10.70;;;;;;;13.58;94.95;101088.34;111079;1237;61676;-92
2023/05/16 00:58:33;;;;;;;16.00;10.50;;;;;;;13.57;95.00;101086.99;109636;1241;74011;-94
2023/05/16 01:01:02;;;;;;;17.10;12.90;;;;;;;13.57;95.10;101085.27;109434;1234;63252;-91
2023/05/16 01:03:30;;;;;;;20.10;12.10;;;;;;;13.57;95.25;101083.69;109421;1236;73533;-91
2023/05/16 01:05:59;;;;;;;20.50;13.30;;;;;;;13.57;95.18;101082.49;109423;1235;61535;-93
2023/05/16 01:08:26;;;;;;;22.40;13.70;;;;;;;13.55;94.94;101084.02;109161;1232;61587;-92
2023/05/16 01:11:06;;;;;;;21.10;12.90;;;;;;;13.52;94.92;101084.52;110060;1233;73920;-91
2023/05/16 01:14:02;;;;;;;20.00;12.00;;;;;;;13.48;94.93;101084.64;109446;1233;63521;-91
2023/05/16 01:16:33;;;;;;;19.20;12.00;;;;;;;13.43;94.84;101086.70;109184;1234;73500;-94
2023/05/16 01:19:42;;;;;;;18.50;11.50;;;;;;;13.37;94.97;101083.38;109340;1237;62828;-92
2023/05/16 01:22:21;;;;;;;18.80;12.10;;;;;;;13.29;95.20;101092.13;109027;1236;60258;-92
2023/05/16 01:25:13;;;;;;;19.20;11.40;;;;;;;13.24;95.72;101090.70;110041;1238;73599;-94
2023/05/16 01:27:40;;;;;;;20.50;12.10;;;;;;;13.22;95.78;101096.95;109852;1234;65091;-91
2023/05/16 01:30:15;;;;;;;20.40;13.20;;;;;;;13.20;95.75;101093.03;109696;1239;73940;-90
2023/05/16 01:32:43;;;;;;;23.40;14.50;;;;;;;13.18;95.89;101094.05;109534;1236;60535;-91
2023/05/16 01:35:13;;;;;;;24.90;14.80;;;;;;;13.17;96.07;101091.66;109343;1235;61033;-94
2023/05/16 01:37:48;;;;;;;29.90;15.80;;;;;;;13.15;95.87;101091.95;110860;1233;73655;-92
2023/05/16 01:40:23;;;;;;;25.20;14.50;;;;;;;13.13;95.69;101090.48;110676;1234;63717;-92
2023/05/16 01:42:51;;;;;;;25.90;13.80;;;;;;;13.11;95.75;101092.04;110079;1233;73459;-91
2023/05/16 01:45:26;;;;;;;27.00;13.70;;;;;;;13.09;95.71;101091.33;109776;1232;63064;-92
2023/05/16 01:48:05;;;;;;;24.90;13.40;;;;;;;13.05;95.59;101098.00;109678;1234;60345;-91
2023/05/16 01:50:34;;;;;;;27.80;13.50;;;;;;;13.05;95.72;101097.33;109725;1234;73573;-92
2023/05/16 01:53:08;;;;;;;31.20;15.10;;;;;;;13.07;95.75;101097.59;109056;1240;64729;-92
2023/05/16 01:55:50;;;;;;;30.50;15.70;;;;;;;13.08;95.52;101094.84;109227;1235;73589;-96
2023/05/16 01:58:22;;;;;;;28.10;16.70;;;;;;;13.09;95.40;101095.34;109256;1239;61068;-94
2023/05/16 02:00:53;;;;;;;26.30;15.90;;;;;;;13.07;95.42;101091.79;109288;1234;61666;-92
2023/05/16 02:03:21;;;;;;;27.60;15.80;;;;;;;13.05;95.32;101087.86;109079;1233;75247;-91
2023/05/16 02:05:48;;;;;;;29.30;14.50;;;;;;;13.02;95.42;101085.92;109271;1238;63648;-91
2023/05/16 02:08:18;;;;;;;26.90;15.00;;;;;;;12.98;95.65;101083.73;109391;1233;73587;-93
2023/05/16 02:10:45;;;;;;;20.80;13.90;;;;;;;12.94;95.79;101091.89;109547;1241;61898;-89
2023/05/16 02:13:12;;;;;;;22.10;14.70;;;;;;;12.90;95.98;101094.97;110917;1233;60344;-94
2023/05/16 02:15:39;;;;;;;21.60;13.80;;;;;;;12.86;96.51;101096.75;109878;1236;74206;-92
2023/05/16 02:18:06;;;;;;;19.20;12.60;;;;;;;12.84;96.82;101095.84;109866;1237;62525;-91
2023/05/16 02:20:34;;;;;;;27.20;14.70;;;;;;;12.82;97.00;101094.70;111503;1232;72172;-92
2023/05/16 02:23:04;;;;;;;25.00;15.00;;;;;;;12.82;96.91;101091.23;110125;1237;60539;-94
2023/05/16 02:25:32;;;;;;;24.70;17.50;;;;;;;12.82;96.89;101089.62;109056;1233;61145;-92
2023/05/16 02:27:59;;;;;;;30.80;18.70;;;;;;;12.85;96.71;101097.36;109408;1236;74654;-92
2023/05/16 02:30:26;;;;;;;30.20;20.00;;;;;;;12.86;96.10;101099.72;109396;1232;63927;-91
2023/05/16 02:32:55;;;;;;;31.30;20.80;;;;;;;12.86;95.92;101102.88;109079;1241;72504;-91
2023/05/16 02:35:22;;;;;;;33.60;20.20;;;;;;;12.86;95.92;101102.73;109458;1237;61562;-92
2023/05/16 02:37:50;;;;;;;24.90;18.20;;;;;;;12.87;95.79;101103.73;109168;1241;60573;-93
2023/05/16 02:40:17;;;;;;;28.20;15.80;;;;;;;12.86;95.78;101105.49;109443;1234;74767;-94
2023/05/16 02:42:45;;;;;;;31.30;16.40;;;;;;;12.87;95.72;101103.34;109724;1239;63690;-92
2023/05/16 02:45:12;;;;;;;39.00;20.40;;;;;;;12.91;95.82;101102.93;109537;1236;74289;-95
2023/05/16 02:47:42;;;;;;;27.80;16.10;;;;;;;12.96;95.97;101100.73;110271;1234;62262;-96
2023/05/16 02:50:12;;;;;;;29.50;16.60;;;;;;;13.02;96.18;101102.27;110276;1235;61005;-96
2023/05/16 02:52:46;;;;;;;34.10;19.20;;;;;;;13.07;96.13;101097.21;110628;1234;72654;-95
2023/05/16 02:55:19;;;;;;;40.10;20.00;;;;;;;13.16;95.91;101105.27;110372;1238;61836;-96
2023/05/16 02:57:51;;;;;;;38.70;19.00;;;;;;;13.21;95.79;101107.73;111666;1232;72318;-96
2023/05/16 03:00:22;;;;;;;29.70;19.00;;;;;;;13.25;95.93;101106.79;112216;1233;59912;-96
2023/05/16 03:03:13;;;;;;;27.00;16.30;;;;;;;13.28;95.73;101108.02;112481;1232;58928;-95
2023/05/16 03:06:01;;;;;;;27.20;16.80;;;;;;;13.31;95.53;101110.46;112229;1233;72579;31
2023/05/16 03:09:42;;;;;;;27.90;16.00;;;;;;;13.39;95.85;101110.00;106448;1289;612315;-96
2023/05/16 03:12:12;;;;;;;29.40;15.30;;;;;;;13.43;96.25;101106.73;107286;1267;62169;-95
2023/05/16 03:14:41;;;;;;;23.60;12.60;;;;;;;13.49;95.81;101108.64;107237;1267;59960;-96
2023/05/16 03:17:10;;;;;;;16.60;11.20;;;;;;;13.57;95.56;101105.13;107800;1257;71370;-96
2023/05/16 03:19:37;;;;;;;31.80;16.40;;;;;;;13.67;95.40;101109.42;107910;1257;63839;-93
2023/05/16 03:22:04;;;;;;;28.00;16.20;;;;;;;13.79;95.72;101114.27;104051;1256;5654515;-94
2023/05/16 03:24:31;;;;;;;27.30;16.50;;;;;;;13.90;95.61;101117.05;109345;1255;58177;-92
2023/05/16 03:26:59;;;;;;;29.40;16.10;;;;;;;13.98;95.02;101117.23;108664;1255;58789;-93
2023/05/16 03:29:26;;;;;;;33.20;15.60;;;;;;;14.03;94.46;101118.96;108309;1256;59301;-91
2023/05/16 03:31:54;;;;;;;20.10;11.60;;;;;;;14.09;93.77;101119.10;107093;1256;63936;-96
2023/05/16 03:34:23;;;;;;;16.80;11.10;;;;;;;14.16;93.51;101120.06;106981;1256;72526;-94
2023/05/16 03:36:53;;;;;;;28.10;13.80;;;;;;;14.22;93.42;101122.80;107306;1255;61884;-95
2023/05/16 03:39:22;;;;;;;21.60;11.40;;;;;;;14.30;94.08;101119.63;106972;1255;60223;-92
2023/05/16 03:41:51;;;;;;;18.60;9.80;;;;;;;14.39;94.16;101120.45;106517;1257;73740;-95
2023/05/16 03:44:18;;;;;;;16.00;10.10;;;;;;;14.46;93.61;101116.26;108035;1256;64931;-91
2023/05/16 03:46:45;;;;;;;11.50;7.70;;;;;;;14.54;93.26;101115.21;109042;1257;72752;-91
2023/05/16 03:49:12;;;;;;;23.70;11.40;;;;;;;14.62;91.91;101117.64;107794;1256;60113;-94
2023/05/16 03:51:39;;;;;;;15.50;9.70;;;;;;;14.71;91.82;101114.57;107304;1256;60093;-95
2023/05/16 03:54:07;;;;;;;20.80;10.00;;;;;;;14.80;91.40;101114.66;107160;1258;72651;-95
2023/05/16 03:56:34;;;;;;;16.50;8.50;;;;;;;14.88;90.66;101110.23;109180;1256;63026;-96
2023/05/16 03:59:03;;;;;;;19.90;9.10;;;;;;;14.97;89.92;101109.95;109350;1256;72825;-94
2023/05/16 04:01:30;;;;;;;16.50;7.70;;;;;;;15.05;89.90;101115.69;109195;1256;60020;-94
2023/05/16 04:03:58;;;;;;;20.70;9.40;;;;;;;15.14;89.62;101120.35;109303;1256;59980;-95
2023/05/16 04:06:26;;;;;;;21.30;9.40;;;;;;;15.22;89.68;101116.10;108233;1256;72742;-95
2023/05/16 04:09:01;;;;;;;15.70;9.40;;;;;;;15.33;89.10;101118.48;107134;1257;63663;-93
2023/05/16 04:11:29;;;;;;;22.90;9.00;;;;;;;15.42;88.65;101121.35;107629;1257;71930;-94
2023/05/16 04:14:00;;;;;;;17.70;8.70;;;;;;;15.55;89.26;101123.08;107012;1256;60381;-94
2023/05/16 04:16:30;;;;;;;29.70;9.70;;;;;;;15.73;89.36;101126.71;106880;1256;59508;-96
2023/05/16 04:18:58;;;;;;;49.70;10.90;;;;;;;15.94;87.91;101124.44;107356;1256;73980;-94
2023/05/16 04:21:37;;;;;;;25.00;9.00;;;;;;;16.23;87.12;101121.75;107068;1255;63891;-94
2023/05/16 04:24:13;;;;;;;18.20;7.50;;;;;;;16.64;85.25;101122.81;107726;1255;73819;-96
2023/05/16 04:27:03;;;;;;;13.70;6.10;;;;;;;17.21;83.08;101123.90;109020;1255;60371;-95
2023/05/16 04:29:35;;;;;;;11.80;5.20;;;;;;;17.65;79.78;101123.52;109131;1257;60014;-94
2023/05/16 04:32:06;;;;;;;11.50;5.30;;;;;;;18.14;77.42;101125.67;108597;1257;72139;-93
2023/05/16 04:34:36;;;;;;;15.50;6.70;;;;;;;18.69;75.82;101128.13;109216;1257;63743;-94
2023/05/16 04:37:28;;;;;;;11.60;5.80;;;;;;;19.33;73.00;101131.42;109460;1253;72742;-96
2023/05/16 04:40:01;;;;;;;16.10;5.50;;;;;;;19.86;71.38;101124.01;109474;1254;60505;-96
2023/05/16 04:42:40;;;;;;;17.90;5.20;;;;;;;20.46;66.92;101130.02;107915;1254;60489;-95
2023/05/16 04:45:27;;;;;;;15.30;5.10;;;;;;;21.01;63.42;101127.34;109394;1254;74148;-96
2023/05/16 04:48:31;;;;;;;14.00;6.30;;;;;;;21.64;59.80;101124.75;108641;1259;62117;-96
2023/05/16 04:51:15;;;;;;;9.70;4.60;;;;;;;22.08;56.70;101124.70;108477;1259;71632;-95
2023/05/16 04:53:46;;;;;;;8.00;4.70;;;;;;;22.37;53.81;101123.67;108706;1257;60690;-96
2023/05/16 04:56:15;;;;;;;6.60;4.90;;;;;;;22.67;51.33;101125.39;108886;1259;58593;-94
2023/05/16 04:58:47;;;;;;;9.10;4.60;;;;;;;23.05;50.08;101127.59;107524;1250;73025;31
2023/05/16 05:01:23;;;;;;;8.10;3.70;;;;;;;23.50;47.69;101132.23;107590;1257;62769;-96
2023/05/16 05:03:50;;;;;;;5.30;3.40;;;;;;;23.87;44.98;101129.85;107668;1257;72056;-96
2023/05/16 05:06:24;;;;;;;6.10;3.60;;;;;;;24.28;43.52;101129.58;108115;1257;59639;-96
2023/05/16 05:08:54;;;;;;;8.60;3.60;;;;;;;24.73;42.68;101133.33;108853;1248;60388;-93
2023/05/16 05:11:43;;;;;;;6.10;4.10;;;;;;;25.16;40.21;101129.73;108625;1256;73187;-95
2023/05/16 05:14:27;;;;;;;5.80;2.90;;;;;;;25.49;39.32;101129.40;107958;1255;63417;-95
2023/05/16 05:17:20;;;;;;;6.40;2.80;;;;;;;25.78;39.11;101128.66;108883;1256;72354;-96
2023/05/16 05:20:21;;;;;;;4.60;3.50;;;;;;;26.16;37.77;101131.05;108991;1260;60236;-92
2023/05/16 05:23:03;;;;;;;11.20;2.90;;;;;;;26.41;37.02;101136.02;109013;1259;60237;-93
2023/05/16 05:25:39;;;;;;;6.80;3.50;;;;;;;26.65;36.01;101136.76;108475;1263;74444;-95
2023/05/16 05:28:48;;;;;;;7.90;3.20;;;;;;;26.85;35.55;101136.58;108668;1263;63980;-94
2023/05/16 05:31:33;;;;;;;5.00;3.40;;;;;;;27.07;35.35;101139.38;108571;1264;71540;-94
2023/05/16 05:34:04;;;;;;;4.40;3.00;;;;;;;27.27;34.70;101137.33;108810;1252;60958;-94
2023/05/16 05:36:38;;;;;;;6.90;3.40;;;;;;;27.45;34.64;101135.23;109201;1256;60311;-95
2023/05/16 05:39:25;;;;;;;5.30;3.20;;;;;;;27.68;34.49;101135.05;109238;1256;72753;31
2023/05/16 05:43:04;;;;;;;3.70;2.60;;;;;;;27.92;33.61;101133.23;108417;1249;63048;31
2023/05/16 05:45:57;;;;;;;3.40;3.00;;;;;;;28.12;32.95;101132.61;108608;1273;72102;-95
2023/05/16 05:48:48;;;;;;;5.10;2.70;;;;;;;28.33;32.96;101132.84;108241;1262;59616;-91
2023/05/16 05:51:19;;;;;;;5.60;3.10;;;;;;;28.53;32.66;101136.38;108583;1263;60005;-90
2023/05/16 05:54:02;;;;;;;3.90;2.90;;;;;;;28.77;32.09;101134.60;108792;1262;73048;-91
2023/05/16 05:56:39;;;;;;;6.90;2.80;;;;;;;29.07;31.55;101137.30;108201;1262;64571;-93
2023/05/16 05:59:35;;;;;;;10.10;3.40;;;;;;;29.35;31.43;101141.44;108403;1262;71912;-95
2023/05/16 06:02:42;;;;;;;6.10;2.80;;;;;;;29.63;31.03;101139.15;108554;1261;58984;-95
2023/05/16 06:08:24;;;;;;;9.90;3.50;;;;;;;30.15;30.19;101136.86;108507;1261;73317;-93
2023/05/16 06:11:05;;;;;;;7.60;2.60;;;;;;;30.17;29.70;101136.54;108708;1262;63623;-94
2023/05/16 06:14:04;;;;;;;6.70;2.70;;;;;;;30.14;29.33;101135.29;109013;1263;71873;-94
2023/05/16 06:17:09;;;;;;;5.40;3.10;;;;;;;30.25;29.45;101134.08;108508;1262;59710;-95
2023/05/16 06:23:03;;;;;;;4.90;2.50;;;;;;;30.05;29.39;101133.54;108272;1267;72550;-96
2023/05/16 06:29:22;;;;;;;3.60;2.40;;;;;;;29.99;28.96;101137.91;108285;1266;71907;-95
2023/05/16 06:32:13;;;;;;;6.40;2.60;;;;;;;29.91;28.86;101136.63;108247;1267;59328;-95
2023/05/16 06:51:43;;;;;;;5.90;2.70;;;;;;;29.63;28.78;101125.74;108017;1264;60475;31
2023/05/16 06:54:40;;;;;;;5.70;3.50;;;;;;;29.51;28.64;101127.26;108485;1269;71930;-95
2023/05/16 08:11:24;;;;;;;6.10;2.00;;;;;;;32.73;24.29;101134.28;106034;1282;600068;-95
2023/05/16 08:13:55;;;;;;;5.50;2.60;;;;;;;33.04;24.18;101132.19;107282;1274;62250;-96
2023/05/16 08:16:24;;;;;;;11.10;2.40;;;;;;;33.36;23.78;101133.90;107077;1269;61226;-92
2023/05/16 08:18:57;;;;;;;5.60;2.60;;;;;;;33.67;23.49;101126.91;108236;1260;73106;-94
2023/05/16 08:21:46;;;;;;;4.50;1.80;;;;;;;33.85;23.47;101126.80;107952;1260;65795;-95
2023/05/16 08:24:18;;;;;;;4.30;2.40;;;;;;;34.02;22.82;101124.66;107575;1259;835434;-94
2023/05/16 08:26:59;;;;;;;3.70;1.80;;;;;;;34.22;22.80;101124.23;107367;1260;61139;-93
2023/05/16 08:29:35;;;;;;;6.30;2.20;;;;;;;34.38;22.37;101121.58;107900;1250;61360;31
2023/05/16 08:32:15;;;;;;;5.70;2.50;;;;;;;34.52;21.95;101125.80;108519;1258;71714;-92
2023/05/16 08:35:09;;;;;;;4.20;1.90;;;;;;;34.61;21.47;101129.03;108505;1260;62747;-94
2023/05/16 08:37:41;;;;;;;12.30;2.30;;;;;;;34.71;21.75;101124.08;108382;1259;74032;-94
2023/05/16 08:40:14;;;;;;;7.20;3.10;;;;;;;34.83;21.50;101124.12;108624;1260;61029;-95
2023/05/16 08:42:43;;;;;;;2.10;1.80;;;;;;;34.88;20.42;101122.50;109016;1259;59606;-95
2023/05/16 08:45:25;;;;;;;2.70;2.00;;;;;;;34.68;19.81;101118.39;108442;1260;74671;-94
2023/05/16 08:47:55;;;;;;;5.00;1.80;;;;;;;34.60;20.41;101115.47;108372;1259;64757;-94
2023/05/16 08:50:44;;;;;;;3.10;1.40;;;;;;;34.68;20.49;101110.89;108633;1257;74688;-95
2023/05/16 08:53:24;;;;;;;5.30;1.90;;;;;;;34.77;19.88;101111.38;108508;1257;59747;-94
2023/05/16 08:56:00;;;;;;;3.20;1.60;;;;;;;34.66;19.79;101107.30;108362;1256;62199;-93
2023/05/16 08:58:45;;;;;;;7.10;1.80;;;;;;;34.57;19.88;101106.37;107620;1259;71763;-96
2023/05/16 09:01:14;;;;;;;8.80;1.70;;;;;;;34.60;19.52;101102.94;108207;1258;65976;-93
2023/05/16 09:03:42;;;;;;;3.90;1.40;;;;;;;34.58;19.46;101097.05;107849;1259;75250;-93
2023/05/16 09:06:10;;;;;;;17.30;15.60;;;;;;;34.61;19.47;101097.96;108131;1258;62228;-93
2023/05/16 09:08:46;;;;;;;19.40;17.50;;;;;;;34.63;19.46;101095.64;108856;1253;61750;31
2023/05/16 09:11:31;;;;;;;20.30;14.40;;;;;;;34.60;19.03;101094.84;108846;1255;73788;-95
2023/05/16 09:18:04;;;;;;;7.30;1.50;;;;;;;34.32;19.07;101090.85;108179;1269;71416;-94
2023/05/16 09:20:31;;;;;;;2.40;1.70;;;;;;;34.25;20.05;101088.90;107293;1276;61269;-93
2023/05/16 09:23:43;;;;;;;9.00;1.40;;;;;;;34.20;19.79;101085.73;108175;1269;59115;-93
2023/05/16 09:26:53;;;;;;;7.60;1.90;;;;;;;34.11;20.18;101083.74;107257;1276;72276;-94
2023/05/16 09:29:23;;;;;;;3.60;1.40;;;;;;;34.05;20.23;101081.73;106447;1276;64845;-94
2023/05/16 09:32:00;;;;;;;7.80;2.10;;;;;;;34.03;20.38;101084.57;106904;1275;75179;-95
2023/05/16 09:34:29;;;;;;;4.30;1.70;;;;;;;33.99;20.25;101084.79;106286;1276;61366;-95
2023/05/16 09:36:58;;;;;;;4.80;1.80;;;;;;;33.92;19.98;101082.60;106770;1276;59477;-92
2023/05/16 09:42:33;;;;;;;4.50;1.60;;;;;;;33.72;19.68;101081.25;108333;1273;63010;-93
2023/05/16 09:45:19;;;;;;;5.70;1.50;;;;;;;33.55;19.68;101077.33;107383;1272;74089;-95
2023/05/16 09:48:35;;;;;;;2.20;1.10;;;;;;;33.27;20.38;101082.13;108339;1273;62150;-94
2023/05/16 10:02:38;;;;;;;3.80;3.00;;;;;;;31.89;21.90;101072.14;108165;1273;73388;-94
2023/05/16 10:06:02;;;;;;;2.50;1.40;;;;;;;31.51;21.78;101071.50;108138;1270;59363;-93
2023/05/16 10:08:35;;;;;;;2.80;2.30;;;;;;;31.16;21.86;101073.42;107763;1271;60787;-95
2023/05/16 10:11:11;;;;;;;3.90;1.80;;;;;;;30.87;22.25;101077.02;107120;1270;74104;-94
2023/05/16 10:13:41;;;;;;;2.50;1.60;;;;;;;30.62;22.93;101072.10;106553;1275;66191;-96
2023/05/16 10:16:15;;;;;;;4.30;1.20;;;;;;;30.40;23.34;101073.91;106437;1276;71659;-92
2023/05/16 10:18:43;;;;;;;4.60;2.90;;;;;;;30.31;23.53;101076.35;107684;1274;59819;-93
2023/05/16 10:21:28;;;;;;;2.90;2.10;;;;;;;30.23;23.72;101075.22;106654;1276;62555;-93
2023/05/16 10:24:06;;;;;;;3.70;2.60;;;;;;;30.11;23.48;101070.81;106212;1276;74126;-94
2023/05/16 10:26:33;;;;;;;2.00;1.30;;;;;;;29.94;23.86;101070.09;106116;1279;64939;-94
2023/05/16 10:29:05;;;;;;;1.80;1.50;;;;;;;29.79;24.45;101070.47;106594;1274;73858;-94
2023/05/16 10:31:47;;;;;;;7.00;1.80;;;;;;;29.71;25.01;101066.64;106544;1275;61723;-93
2023/05/16 10:34:16;;;;;;;2.90;1.70;;;;;;;29.69;25.58;101068.18;105878;1276;61129;-94
2023/05/16 10:36:46;;;;;;;15.90;7.90;;;;;;;29.66;24.95;101065.94;106052;1276;73994;-94
2023/05/16 10:39:20;;;;;;;18.40;14.70;;;;;;;29.51;24.48;101063.05;106386;1276;63249;-94
2023/05/16 10:41:50;;;;;;;2.40;2.10;;;;;;;29.36;24.61;101067.73;107058;1275;74917;-95
2023/05/16 10:44:22;;;;;;;;;;;;;;;29.26;25.20;101071.92;106376;1271;61386;-94
2023/05/16 10:46:51;;;;;;;2.90;1.90;;;;;;;29.16;25.61;101070.98;107471;1271;62241;-93
2023/05/16 10:49:30;;;;;;;5.60;1.80;;;;;;;29.02;26.44;101075.64;108008;1273;74195;-96
2023/05/16 10:52:21;;;;;;;2.90;1.70;;;;;;;28.90;26.63;101070.70;107984;1272;62563;-92
2023/05/16 10:55:05;;;;;;;4.40;2.40;;;;;;;28.83;26.66;101077.60;108090;1272;73642;-95
2023/05/16 10:57:41;;;;;;;11.50;5.30;;;;;;;28.70;26.78;101073.40;107371;1267;59897;-95
2023/05/16 11:00:44;;;;;;;4.80;3.30;;;;;;;28.61;26.97;101073.55;107047;1273;61314;-95
2023/05/16 11:04:48;;;;;;;7.10;4.60;;;;;;;28.50;27.77;101074.73;105889;1288;615058;-96
2023/05/16 11:07:40;;;;;;;2.20;1.80;;;;;;;28.39;27.22;101072.70;108515;1257;61081;-95
2023/05/16 11:10:32;;;;;;;3.80;2.00;;;;;;;28.24;27.46;101071.59;108508;1257;61706;-94
2023/05/16 11:13:14;;;;;;;1.70;1.60;;;;;;;28.06;27.33;101074.07;108127;1256;72400;-94
2023/05/16 11:16:43;;;;;;;4.00;3.60;;;;;;;27.82;28.07;101073.08;107565;1260;1215625;-96
2023/05/16 11:19:14;;;;;;;3.30;2.20;;;;;;;27.67;28.35;101075.91;108180;1254;72382;-96
2023/05/16 11:31:49;;;;;;;8.70;3.30;;;;;;;26.76;30.03;101079.83;108794;1271;63441;-96
2023/05/16 11:35:42;;;;;;;4.10;3.00;;;;;;;26.56;30.44;101079.29;108261;1261;75733;31
2023/05/16 11:38:27;;;;;;;6.00;2.00;;;;;;;26.41;30.39;101080.59;108613;1261;59457;-94
2023/05/16 11:41:14;;;;;;;5.90;2.50;;;;;;;26.26;30.55;101080.48;108719;1267;63917;-96
2023/05/16 11:50:53;;;;;;;3.20;1.60;;;;;;;26.01;31.63;101084.09;108251;1270;72197;-96
2023/05/16 11:54:15;;;;;;;7.70;4.00;;;;;;;25.99;31.90;101082.69;107854;1272;58940;-96
2023/05/16 11:57:15;;;;;;;11.20;2.70;;;;;;;25.95;32.29;101079.10;107810;1264;60768;31
2023/05/16 12:03:08;;;;;;;6.60;2.30;;;;;;;25.90;33.33;101076.50;107931;1272;65042;-96
2023/05/16 12:06:02;;;;;;;3.40;2.10;;;;;;;25.87;33.69;101075.73;107869;1274;72356;-95
2023/05/16 12:08:50;;;;;;;5.10;2.20;;;;;;;25.80;33.42;101066.88;107994;1274;60737;-95
2023/05/16 12:15:15;;;;;;;3.10;2.60;;;;;;;25.78;33.30;101074.95;107734;1273;73037;-94
2023/05/16 12:17:43;;;;;;;5.10;2.20;;;;;;;25.77;33.54;101073.90;107258;1273;64819;-96
2023/05/16 12:20:19;;;;;;;6.80;2.70;;;;;;;25.76;33.43;101079.54;107372;1273;71741;-94
2023/05/16 12:22:51;;;;;;;4.10;2.00;;;;;;;25.75;33.52;101079.42;107650;1273;60267;-96
2023/05/16 12:25:30;;;;;;;4.90;2.60;;;;;;;25.75;34.10;101077.06;107269;1273;59597;-95
2023/05/16 12:28:07;;;;;;;6.70;3.70;;;;;;;25.77;33.38;101078.30;107966;1273;73011;-96
2023/05/16 12:30:41;;;;;;;4.40;2.30;;;;;;;25.76;33.38;101084.54;108064;1273;62931;-93
2023/05/16 12:33:14;;;;;;;4.60;2.20;;;;;;;25.74;33.87;101083.48;107212;1273;74387;-96
2023/05/16 12:36:16;;;;;;;1.80;1.50;;;;;;;25.71;33.92;101083.91;107295;1273;59686;-93
2023/05/16 12:38:48;;;;;;;6.50;2.40;;;;;;;25.68;34.04;101085.89;106045;1274;61411;-96
2023/05/16 12:41:41;;;;;;;5.40;2.40;;;;;;;25.62;34.51;101077.90;106404;1278;76469;-96
2023/05/16 12:44:16;;;;;;;6.20;1.80;;;;;;;25.62;35.40;101078.27;106868;1273;63458;-95
2023/05/16 12:46:50;;;;;;;4.40;2.50;;;;;;;25.60;35.55;101078.09;106578;1273;72728;-94
2023/05/16 12:49:22;;;;;;;6.10;4.30;;;;;;;25.57;35.30;101080.09;106590;1273;60506;-96
2023/05/16 12:52:04;;;;;;;20.80;17.50;;;;;;;25.51;35.78;101077.58;106563;1273;61457;-94
2023/05/16 12:54:39;;;;;;;6.00;4.00;;;;;;;25.46;34.33;101080.88;107567;1275;73061;-95
2023/05/16 12:57:09;;;;;;;4.00;2.70;;;;;;;25.39;34.05;101087.03;107740;1276;63893;-96
2023/05/16 13:00:15;;;;;;;;;;;;;;;25.31;33.52;101083.83;107113;1276;72513;-96
2023/05/16 13:03:42;;;;;;;3.80;2.60;;;;;;;25.24;32.94;101083.59;107377;1276;59419;-95
2023/05/16 13:06:30;;;;;;;3.40;2.20;;;;;;;25.17;31.64;101080.05;107210;1276;60764;-96
2023/05/16 13:09:35;;;;;;;5.50;1.80;;;;;;;25.08;29.93;101079.16;106584;1276;72241;-92
2023/05/16 13:12:13;;;;;;;3.60;1.60;;;;;;;25.01;30.34;101080.46;107011;1276;63597;-94
2023/05/16 13:15:02;;;;;;;3.10;1.30;;;;;;;24.98;30.87;101079.92;107855;1276;74452;-94
2023/05/16 13:17:36;;;;;;;2.10;1.40;;;;;;;24.90;31.55;101077.41;107999;1276;60602;-94
2023/05/16 13:20:13;;;;;;;3.70;2.00;;;;;;;24.87;30.66;101085.27;108029;1277;59134;-95
2023/05/16 13:24:16;;;;;;;6.00;2.80;;;;;;;24.81;30.16;101084.45;105895;1292;600886;-95
2023/05/16 13:26:48;;;;;;;1.80;1.40;;;;;;;24.74;29.55;101089.45;107549;1269;59151;-94
2023/05/16 13:29:34;;;;;;;5.60;1.70;;;;;;;24.67;28.49;101087.48;107861;1266;61258;-95
2023/05/16 13:32:06;;;;;;;4.50;4.00;;;;;;;24.64;29.19;101087.88;107842;1264;73266;-94
2023/05/16 13:35:01;;;;;;;16.10;10.10;;;;;;;24.58;29.69;101082.97;108173;1266;62826;-94
2023/05/16 13:37:32;;;;;;;12.10;3.30;;;;;;;24.53;29.21;101085.66;108377;1260;836976;-92
2023/05/16 13:40:01;;;;;;;4.90;1.70;;;;;;;24.51;29.21;101088.27;107711;1258;61439;-95
2023/05/16 13:42:42;;;;;;;2.80;1.70;;;;;;;24.46;29.06;101090.41;108155;1259;61312;-94
2023/05/16 13:45:36;;;;;;;2.30;1.90;;;;;;;24.42;28.83;101085.35;108021;1258;71115;-96
2023/05/16 13:55:40;;;;;;;2.60;1.30;;;;;;;24.17;28.85;101077.14;94228;1271;60129;-94
2023/05/16 20:29:03;;;;;;;12.00;10.40;;;;;;;19.20;64.93;101133.60;106686;1287;613567;-92
2023/05/16 20:31:35;;;;;;;13.00;10.20;;;;;;;19.17;63.97;101128.53;107876;1269;60141;-95
2023/05/16 20:34:24;;;;;;;13.20;10.00;;;;;;;19.15;60.96;101121.50;108447;1263;60348;-96
2023/05/16 20:37:41;;;;;;;18.70;10.40;;;;;;;19.13;60.12;101122.89;108645;1268;72586;-96
2023/05/16 20:40:23;;;;;;;14.60;10.10;;;;;;;19.14;60.29;101126.88;108501;1270;63951;-96
2023/05/16 20:46:52;;;;;;;13.60;9.90;;;;;;;19.11;64.55;101122.55;105952;1260;59498;31
2023/05/16 20:49:28;;;;;;;22.30;12.30;;;;;;;19.08;64.99;101117.70;108226;1265;59610;-95
2023/05/16 20:52:12;;;;;;;11.70;8.70;;;;;;;19.05;66.80;101118.25;108477;1265;72210;-95
2023/05/16 20:54:46;;;;;;;13.60;9.90;;;;;;;19.02;69.38;101118.33;108182;1265;62937;-95
2023/05/16 21:00:32;;;;;;;10.50;7.50;;;;;;;18.96;71.24;101120.48;108678;1267;59782;-96
2023/05/16 21:03:41;;;;;;;11.80;7.80;;;;;;;18.90;75.05;101117.98;108205;1259;59453;31
2023/05/16 21:07:39;;;;;;;17.50;9.40;;;;;;;18.82;71.90;101114.80;108908;1268;73793;-93
2023/05/16 21:11:02;;;;;;;10.00;8.10;;;;;;;18.79;74.33;101115.08;108608;1259;65389;31
2023/05/16 21:13:55;;;;;;;;;;;;;;;;;;;;;
2023/05/16 21:16:39;;;;;;;11.20;8.20;;;;;;;18.73;66.77;101111.10;108445;1263;61236;-96